Terminal Aerodrome Forecast
Issued by NWS Paducah, KY

Home | Current Version | Previous Version | Text Only | Print | Product List | Glossary On
Versions: 1 2 3 4 5 6 7 8 9 10 11 12 13 14 15 16 17
000
FTUS43 KPAH 241720
TAFEVV
TAF
KEVV 241720Z 2418/2518 34007KT P6SM -RA SCT008 OVC015
      TEMPO 2418/2420 4SM RA BR BKN008
     FM242100 34005KT P6SM BKN015
     FM250300 VRB03KT 6SM BR BKN020
     FM251000 35005KT 5SM BR SCT007 BKN015
     FM251500 36007KT P6SM BKN015=

USA.gov is the U.S. government's official web portal to all federal, state and local government web resources and services.